Time;durP1;ratioP1;P1;durP2;ratioP2;P2;SDS_P1;SDS_P2;PMS_P1;PMS_P2;Temp;Humidity;BMP_temperature;BMP_pressure;BME280_temperature;BME280_humidity;BME280_pressure;Samples;Min_cycle;Max_cycle;Signal;HPM_P1;HPM_P2
2023/04/24 00:00:32;;;;;;;;;;;16.00;95.00;;;;;;5074604;28;19985;-61
2023/04/24 00:02:57;;;;;;;;;;;15.90;96.00;;;;;;5074732;28;20500;-61
2023/04/24 00:05:23;;;;;;;;;;;15.80;96.80;;;;;;5074555;28;20355;-61
2023/04/24 00:07:52;;;;;;;;;;;15.80;96.90;;;;;;5074392;28;20025;-62
2023/04/24 00:10:18;;;;;;;;;;;15.80;96.20;;;;;;5074799;28;20371;-62
2023/04/24 00:12:44;;;;;;;;;;;15.90;96.00;;;;;;5074342;28;19997;-62
2023/04/24 00:15:09;;;;;;;;;;;15.90;95.80;;;;;;5074131;28;19985;-62
2023/04/24 00:17:35;;;;;;;;;;;15.90;95.70;;;;;;5074324;28;19989;-62
2023/04/24 00:20:04;;;;;;;;;;;15.70;98.40;;;;;;5074370;28;20040;-62
2023/04/24 00:22:30;;;;;;;;;;;15.60;99.90;;;;;;5074493;28;19996;-62
2023/04/24 00:24:56;;;;;;;;;;;15.50;99.90;;;;;;5074238;28;20367;-62
2023/04/24 00:27:21;;;;;;;;;;;15.40;99.90;;;;;;5074440;28;19995;-62
2023/04/24 00:29:47;;;;;;;;;;;15.40;99.90;;;;;;5073947;28;20450;-62
2023/04/24 00:32:13;;;;;;;;;;;15.40;99.30;;;;;;5074259;28;20016;-62
2023/04/24 00:34:39;;;;;;;;;;;15.50;99.00;;;;;;5074284;28;19986;-62
2023/04/24 00:37:05;;;;;;;;;;;15.50;99.40;;;;;;5074106;28;20034;-62
2023/04/24 00:39:30;;;;;;;;;;;15.50;99.90;;;;;;5073901;28;20108;-62
2023/04/24 00:41:56;;;;;;;;;;;15.50;99.90;;;;;;5074030;28;19992;-62
2023/04/24 00:44:22;;;;;;;;;;;15.50;99.90;;;;;;5073775;28;19985;-62
2023/04/24 00:46:51;;;;;;;;;;;15.40;99.90;;;;;;5073905;28;20114;-62
2023/04/24 00:49:21;;;;;;;;;;;15.40;99.90;;;;;;5073804;28;20016;-62
2023/04/24 00:51:46;;;;;;;;;;;15.40;99.90;;;;;;5073912;28;19985;-62
2023/04/24 00:54:12;;;;;;;;;;;15.40;99.90;;;;;;5073489;28;19985;-63
2023/04/24 00:56:38;;;;;;;;;;;15.40;99.90;;;;;;5073457;28;19989;-62
2023/04/24 00:59:04;;;;;;;;;;;15.40;99.90;;;;;;5073464;28;19997;-62
2023/04/24 01:01:30;;;;;;;;;;;15.40;99.90;;;;;;5073698;28;20344;-62
2023/04/24 01:03:56;;;;;;;;;;;15.40;99.90;;;;;;5073936;28;19996;-62
2023/04/24 01:06:22;;;;;;;;;;;15.40;99.90;;;;;;5073723;28;20084;-62
2023/04/24 01:08:47;;;;;;;;;;;15.30;99.90;;;;;;5073551;28;20517;-62
2023/04/24 01:11:13;;;;;;;;;;;15.30;99.90;;;;;;5073542;28;20083;-62
2023/04/24 01:13:39;;;;;;;;;;;15.30;99.90;;;;;;5073696;28;19989;-62
2023/04/24 01:16:05;;;;;;;;;;;15.30;99.90;;;;;;5073618;28;20025;-62
2023/04/24 01:18:30;;;;;;;;;;;15.30;99.90;;;;;;5073487;28;20404;-62
2023/04/24 01:21:03;;;;;;;;;;;15.30;99.90;;;;;;5073655;28;19985;-62
2023/04/24 01:23:29;;;;;;;;;;;15.30;99.90;;;;;;5073575;28;19985;-62
2023/04/24 01:25:54;;;;;;;;;;;15.30;99.90;;;;;;5073436;28;20059;-62
2023/04/24 01:28:20;;;;;;;;;;;15.20;99.90;;;;;;5073214;28;20017;-62
2023/04/24 01:30:45;;;;;;;;;;;15.20;99.90;;;;;;5073713;28;19990;-62
2023/04/24 01:33:11;;;;;;;;;;;15.10;99.90;;;;;;5073315;28;20450;-62
2023/04/24 01:35:37;;;;;;;;;;;15.10;99.90;;;;;;5073295;28;20054;-62
2023/04/24 01:38:03;;;;;;;;;;;15.10;99.90;;;;;;5072092;28;20029;-62
2023/04/24 01:40:29;;;;;;;;;;;15.00;99.90;;;;;;5073575;28;20080;-62
2023/04/24 01:42:55;;;;;;;;;;;15.00;99.80;;;;;;5073113;28;20451;-62
2023/04/24 01:45:20;;;;;;;;;;;15.00;99.90;;;;;;5073309;28;19996;-62
2023/04/24 01:47:46;;;;;;;;;;;15.00;99.90;;;;;;5073258;28;20034;-62
2023/04/24 01:50:12;;;;;;;;;;;14.90;99.90;;;;;;5073493;28;20017;-62
2023/04/24 01:52:37;;;;;;;;;;;14.90;99.90;;;;;;5073522;28;20078;-62
2023/04/24 01:55:03;;;;;;;;;;;14.90;99.90;;;;;;5073294;28;19986;-62
2023/04/24 01:57:30;;;;;;;;;;;14.90;99.90;;;;;;5072947;28;20443;-62
2023/04/24 01:59:56;;;;;;;;;;;14.80;99.90;;;;;;5073299;28;19985;-62
2023/04/24 02:02:23;;;;;;;;;;;14.80;99.90;;;;;;5073145;28;20542;-62
2023/04/24 02:04:49;;;;;;;;;;;14.70;99.90;;;;;;5073072;28;20088;-62
2023/04/24 02:07:15;;;;;;;;;;;14.60;99.90;;;;;;5075219;28;19993;-62
2023/04/24 02:09:40;;;;;;;;;;;14.60;99.90;;;;;;5077057;28;20379;-62
2023/04/24 02:12:06;;;;;;;;;;;14.60;99.90;;;;;;5076429;28;19985;-62
2023/04/24 02:14:31;;;;;;;;;;;14.50;99.90;;;;;;5076742;28;19986;-62
2023/04/24 02:16:57;;;;;;;;;;;14.40;99.90;;;;;;5076687;28;19985;-62
2023/04/24 02:19:23;;;;;;;;;;;14.30;99.90;;;;;;5076503;28;20015;-62
2023/04/24 02:21:48;;;;;;;;;;;14.30;99.90;;;;;;5076910;28;20075;-62
2023/04/24 02:24:14;;;;;;;;;;;14.40;99.90;;;;;;5076570;28;20356;-62
2023/04/24 02:26:39;;;;;;;;;;;14.40;99.90;;;;;;5076502;28;19990;-62
2023/04/24 02:29:05;;;;;;;;;;;14.40;99.90;;;;;;5076366;28;20075;-62
2023/04/24 02:31:31;;;;;;;;;;;14.30;99.90;;;;;;5076342;28;20018;-62
2023/04/24 02:33:56;;;;;;;;;;;14.30;99.90;;;;;;5076291;28;20083;-62
2023/04/24 02:36:22;;;;;;;;;;;14.20;99.90;;;;;;5076221;28;20009;-62
2023/04/24 02:38:47;;;;;;;;;;;14.20;99.90;;;;;;5076179;28;20029;-62
2023/04/24 02:41:13;;;;;;;;;;;14.10;99.90;;;;;;5076118;28;19996;-62
2023/04/24 02:43:38;;;;;;;;;;;14.10;99.90;;;;;;5076096;28;20034;-62
2023/04/24 02:46:04;;;;;;;;;;;14.10;99.90;;;;;;5076159;28;19992;-62
2023/04/24 02:48:30;;;;;;;;;;;14.10;99.90;;;;;;5076286;28;20116;-62
2023/04/24 02:50:55;;;;;;;;;;;14.10;99.90;;;;;;5076086;28;20043;-62
2023/04/24 02:53:21;;;;;;;;;;;14.20;99.90;;;;;;5075929;28;19988;-62
2023/04/24 02:55:46;;;;;;;;;;;14.20;99.90;;;;;;5075819;28;20072;-62
2023/04/24 02:58:12;;;;;;;;;;;14.30;99.90;;;;;;5075912;28;20032;-62
2023/04/24 03:00:38;;;;;;;;;;;14.20;99.90;;;;;;5075813;28;20459;-62
2023/04/24 03:03:05;;;;;;;;;;;14.20;99.90;;;;;;5075814;28;19985;-62
2023/04/24 03:05:30;;;;;;;;;;;14.20;99.90;;;;;;5075813;28;19985;-62
2023/04/24 03:07:56;;;;;;;;;;;14.20;99.90;;;;;;5075572;28;20008;-62
2023/04/24 03:10:24;;;;;;;;;;;14.20;99.90;;;;;;5075654;28;19993;-62
2023/04/24 03:12:50;;;;;;;;;;;14.20;99.90;;;;;;5075649;28;20347;-62
2023/04/24 03:15:16;;;;;;;;;;;14.20;99.90;;;;;;5075534;28;19986;-62
2023/04/24 03:17:41;;;;;;;;;;;14.30;99.90;;;;;;5074880;28;19989;-62
2023/04/24 03:20:08;;;;;;;;;;;14.30;99.90;;;;;;5075340;28;19993;-62
2023/04/24 03:22:34;;;;;;;;;;;14.40;99.90;;;;;;5075393;28;20493;-62
2023/04/24 03:24:59;;;;;;;;;;;14.40;99.90;;;;;;5075201;28;19989;-61
2023/04/24 03:27:25;;;;;;;;;;;14.40;99.90;;;;;;5075371;28;19985;-62
2023/04/24 03:29:55;;;;;;;;;;;14.40;99.90;;;;;;5075155;28;20009;-62
2023/04/24 03:32:21;;;;;;;;;;;14.40;99.90;;;;;;5075429;28;19993;-62
2023/04/24 03:34:47;;;;;;;;;;;14.40;99.90;;;;;;5075247;28;19986;-62
2023/04/24 03:37:13;;;;;;;;;;;14.40;99.90;;;;;;5075093;28;19996;-62
2023/04/24 03:39:38;;;;;;;;;;;14.50;99.90;;;;;;5074813;28;20395;-62
2023/04/24 03:42:04;;;;;;;;;;;14.40;99.90;;;;;;5075103;28;19986;-62
2023/04/24 03:44:29;;;;;;;;;;;14.30;99.90;;;;;;5075051;28;20029;-62
2023/04/24 03:46:55;;;;;;;;;;;14.20;99.90;;;;;;5075190;28;19989;-62
2023/04/24 03:49:21;;;;;;;;;;;14.30;99.90;;;;;;5074902;28;20016;-62
2023/04/24 03:51:47;;;;;;;;;;;14.30;99.90;;;;;;5074932;28;19985;-62
2023/04/24 03:54:13;;;;;;;;;;;14.30;99.90;;;;;;5074582;28;20046;-62
2023/04/24 03:56:39;;;;;;;;;;;14.20;99.90;;;;;;5074904;28;20506;-62
2023/04/24 03:59:04;;;;;;;;;;;14.30;99.90;;;;;;5074719;28;20076;-62
2023/04/24 04:01:30;;;;;;;;;;;14.30;99.90;;;;;;5074665;28;19989;-62
2023/04/24 04:03:56;;;;;;;;;;;14.30;99.90;;;;;;5074676;28;20439;-62
2023/04/24 04:06:21;;;;;;;;;;;14.40;99.90;;;;;;5074536;28;19985;-62
2023/04/24 04:08:47;;;;;;;;;;;14.30;99.90;;;;;;5074432;28;20013;-62
2023/04/24 04:11:13;;;;;;;;;;;14.30;99.90;;;;;;5074628;28;20032;-62
2023/04/24 04:13:38;;;;;;;;;;;14.20;99.90;;;;;;5074439;28;20418;-62
2023/04/24 04:16:04;;;;;;;;;;;14.10;99.90;;;;;;5074683;28;19996;-62
2023/04/24 04:18:30;;;;;;;;;;;14.10;99.90;;;;;;5074295;28;20079;-62
2023/04/24 04:20:56;;;;;;;;;;;14.20;99.90;;;;;;5074407;28;19985;-62
2023/04/24 04:23:22;;;;;;;;;;;14.30;99.90;;;;;;5074073;28;20036;-62
2023/04/24 04:25:48;;;;;;;;;;;14.40;99.90;;;;;;5072858;28;20036;-62
2023/04/24 04:28:13;;;;;;;;;;;14.50;99.90;;;;;;5074118;28;19985;-62
2023/04/24 04:30:40;;;;;;;;;;;14.50;99.90;;;;;;5074046;28;19992;-62
2023/04/24 04:33:05;;;;;;;;;;;14.60;99.90;;;;;;5073974;28;20035;-62
2023/04/24 04:35:31;;;;;;;;;;;14.60;99.90;;;;;;5074266;28;20044;-62
2023/04/24 04:37:58;;;;;;;;;;;14.70;99.90;;;;;;5073681;28;20487;-62
2023/04/24 04:40:24;;;;;;;;;;;14.60;99.90;;;;;;5073954;28;20076;-62
2023/04/24 04:42:52;;;;;;;;;;;14.60;99.90;;;;;;5074041;28;20024;-62
2023/04/24 04:45:18;;;;;;;;;;;14.60;99.90;;;;;;5074198;28;19989;-62
2023/04/24 04:47:44;;;;;;;;;;;14.60;99.90;;;;;;5073769;28;20079;-62
2023/04/24 04:50:10;;;;;;;;;;;14.60;99.90;;;;;;5073686;28;20019;-62
2023/04/24 04:52:36;;;;;;;;;;;14.60;99.90;;;;;;5073673;28;19985;-62
2023/04/24 04:55:01;;;;;;;;;;;14.60;99.90;;;;;;5073663;28;20471;-62
2023/04/24 04:57:27;;;;;;;;;;;14.70;99.90;;;;;;5073937;28;19997;-62
2023/04/24 04:59:53;;;;;;;;;;;14.80;99.90;;;;;;5073884;28;19993;-62
2023/04/24 05:02:18;;;;;;;;;;;15.00;99.90;;;;;;5073659;28;19992;-62
2023/04/24 05:04:44;;;;;;;;;;;15.20;99.90;;;;;;5073428;28;19993;-62
2023/04/24 05:07:10;;;;;;;;;;;15.30;99.90;;;;;;5081867;28;20091;-62
2023/04/24 05:09:37;;;;;;;;;;;15.40;99.90;;;;;;5093135;28;20431;-62
2023/04/24 05:12:02;;;;;;;;;;;15.50;99.90;;;;;;5093750;28;19985;-62
2023/04/24 05:14:28;;;;;;;;;;;15.50;99.90;;;;;;5092880;28;20400;-62
2023/04/24 05:16:54;;;;;;;;;;;15.50;99.90;;;;;;5093420;28;19985;-62
2023/04/24 05:19:19;;;;;;;;;;;15.60;99.90;;;;;;5093468;28;19985;-62
2023/04/24 05:21:45;;;;;;;;;;;15.60;99.90;;;;;;5101112;28;19988;-62
2023/04/24 05:24:10;;;;;;;;;;;15.70;99.90;;;;;;5108821;28;19995;-62
2023/04/24 05:26:36;;;;;;;;;;;15.70;99.90;;;;;;5108416;28;20071;-62
2023/04/24 05:29:02;;;;;;;;;;;15.70;99.90;;;;;;5092713;28;20485;-61
2023/04/24 05:31:27;;;;;;;;;;;15.70;99.90;;;;;;5093534;28;19999;-62
2023/04/24 05:33:53;;;;;;;;;;;15.70;99.90;;;;;;5093564;28;19999;-61
2023/04/24 05:36:18;;;;;;;;;;;15.70;99.90;;;;;;5092391;28;20093;-62
2023/04/24 05:38:44;;;;;;;;;;;15.60;99.90;;;;;;5091973;28;20024;-62
2023/04/24 05:41:09;;;;;;;;;;;15.70;99.90;;;;;;5094194;28;20038;-62
2023/04/24 05:43:35;;;;;;;;;;;15.70;99.90;;;;;;5095278;28;20042;-62
2023/04/24 05:46:01;;;;;;;;;;;15.60;99.90;;;;;;5095740;28;19996;-62
2023/04/24 05:48:26;;;;;;;;;;;15.40;99.90;;;;;;5095889;28;20009;-62
2023/04/24 05:50:52;;;;;;;;;;;15.40;99.90;;;;;;5096754;28;20332;-61
2023/04/24 05:53:18;;;;;;;;;;;15.40;99.90;;;;;;5097050;28;19992;-61
2023/04/24 05:55:44;;;;;;;;;;;15.40;99.90;;;;;;5096945;28;20039;-61
2023/04/24 05:58:09;;;;;;;;;;;15.50;99.90;;;;;;5097300;28;19988;-62
2023/04/24 06:00:35;;;;;;;;;;;15.40;99.90;;;;;;5097055;28;20427;-61
2023/04/24 06:06:05;;;;;;;;;;;15.40;99.90;;;;;;5096319;28;19999;-61
2023/04/24 06:08:31;;;;;;;;;;;15.40;99.90;;;;;;5096567;28;20058;-61
2023/04/24 06:10:56;;;;;;;;;;;15.50;99.90;;;;;;5090352;28;19989;-61
2023/04/24 06:13:22;;;;;;;;;;;15.60;99.90;;;;;;5093329;28;20462;-61
2023/04/24 06:15:47;;;;;;;;;;;15.60;99.90;;;;;;5096883;28;19989;-61
2023/04/24 06:18:13;;;;;;;;;;;15.60;99.90;;;;;;5095865;28;20032;-61
2023/04/24 06:20:39;;;;;;;;;;;15.70;99.90;;;;;;5095148;28;19996;-61
2023/04/24 06:23:04;;;;;;;;;;;15.80;99.90;;;;;;5096468;28;20354;-61
2023/04/24 06:25:30;;;;;;;;;;;15.90;99.90;;;;;;5095679;28;19985;-62
2023/04/24 06:27:56;;;;;;;;;;;15.90;99.90;;;;;;5085131;28;20466;-61
2023/04/24 06:30:22;;;;;;;;;;;16.00;99.90;;;;;;5086050;28;20017;-61
2023/04/24 06:32:47;;;;;;;;;;;16.00;99.90;;;;;;5094752;28;20004;-62
2023/04/24 06:35:13;;;;;;;;;;;16.10;99.90;;;;;;5083639;28;20133;-62
2023/04/24 06:37:39;;;;;;;;;;;16.00;99.90;;;;;;5089997;28;19997;-62
2023/04/24 06:40:05;;;;;;;;;;;16.00;99.90;;;;;;5088459;28;19989;-62
2023/04/24 06:42:30;;;;;;;;;;;16.10;99.90;;;;;;5090520;28;19989;-62
2023/04/24 06:44:56;;;;;;;;;;;16.00;99.90;;;;;;5092352;28;20455;-62
2023/04/24 06:47:22;;;;;;;;;;;15.90;99.90;;;;;;5096062;28;19985;-62
2023/04/24 06:49:47;;;;;;;;;;;15.90;99.90;;;;;;5078691;28;20066;-62
2023/04/24 06:52:13;;;;;;;;;;;16.00;99.90;;;;;;5090221;28;20522;-63
2023/04/24 06:54:39;;;;;;;;;;;16.10;99.90;;;;;;5082762;28;20432;-63
2023/04/24 06:57:04;;;;;;;;;;;15.90;99.90;;;;;;5087068;28;19989;-64
2023/04/24 06:59:30;;;;;;;;;;;15.80;99.90;;;;;;5089633;28;20505;-62
2023/04/24 07:01:56;;;;;;;;;;;15.90;99.90;;;;;;5091105;28;20040;-63
2023/04/24 07:04:22;;;;;;;;;;;15.90;99.90;;;;;;5093634;28;20330;-63
2023/04/24 07:06:48;;;;;;;;;;;16.00;99.90;;;;;;5084834;28;20511;-64
2023/04/24 07:09:21;;;;;;;;;;;16.10;99.90;;;;;;5087684;28;20099;-64
2023/04/24 07:11:48;;;;;;;;;;;16.30;99.90;;;;;;5087070;28;20386;-65
2023/04/24 07:14:13;;;;;;;;;;;16.40;99.90;;;;;;5091864;28;20031;-64
2023/04/24 07:16:39;;;;;;;;;;;16.40;99.90;;;;;;5091470;28;20028;-63
2023/04/24 07:19:05;;;;;;;;;;;16.50;99.90;;;;;;5081602;28;20466;-62
2023/04/24 07:21:39;;;;;;;;;;;16.50;99.90;;;;;;5090755;28;20022;-63
2023/04/24 07:24:09;;;;;;;;;;;16.40;99.90;;;;;;5080947;28;19988;-63
2023/04/24 07:26:34;;;;;;;;;;;16.30;99.90;;;;;;5081875;28;20032;-63
2023/04/24 07:29:00;;;;;;;;;;;16.20;99.90;;;;;;5078067;28;20060;-64
2023/04/24 07:31:25;;;;;;;;;;;16.10;99.90;;;;;;5086410;28;19993;-63
2023/04/24 07:33:51;;;;;;;;;;;16.10;99.90;;;;;;5089939;28;19989;-62
2023/04/24 07:36:18;;;;;;;;;;;16.20;99.90;;;;;;5086458;28;19994;-62
2023/04/24 07:38:44;;;;;;;;;;;16.20;99.90;;;;;;5083262;28;20117;-62
2023/04/24 07:41:10;;;;;;;;;;;16.40;99.90;;;;;;5081967;28;20493;-64
2023/04/24 07:43:35;;;;;;;;;;;16.60;99.90;;;;;;5077350;28;19997;-64
2023/04/24 07:46:01;;;;;;;;;;;16.70;99.90;;;;;;5082968;28;20451;-62
2023/04/24 07:48:27;;;;;;;;;;;16.80;99.90;;;;;;5083970;28;20122;-62
2023/04/24 07:50:53;;;;;;;;;;;16.80;99.90;;;;;;5074649;28;20001;-63
2023/04/24 07:53:18;;;;;;;;;;;16.90;99.90;;;;;;5076601;28;19990;-62
2023/04/24 07:55:44;;;;;;;;;;;16.90;99.90;;;;;;5076395;28;20434;-64
2023/04/24 07:58:09;;;;;;;;;;;17.00;99.90;;;;;;5087240;28;19992;-62
2023/04/24 08:00:35;;;;;;;;;;;17.20;99.90;;;;;;5087965;28;19996;-61
2023/04/24 08:03:01;;;;;;;;;;;17.20;99.90;;;;;;5096634;28;19989;-62
2023/04/24 08:05:28;;;;;;;;;;;17.30;99.90;;;;;;5085300;28;20055;-63
2023/04/24 08:07:54;;;;;;;;;;;17.40;99.90;;;;;;5085479;28;19992;-63
2023/04/24 08:10:23;;;;;;;;;;;17.40;99.90;;;;;;5085455;28;20394;-64
2023/04/24 08:12:48;;;;;;;;;;;17.60;99.90;;;;;;5104218;28;19993;-61
2023/04/24 08:15:14;;;;;;;;;;;17.60;99.90;;;;;;5099120;28;20016;-64
2023/04/24 08:17:40;;;;;;;;;;;17.60;99.90;;;;;;5092628;28;19989;-63
2023/04/24 08:20:09;;;;;;;;;;;17.60;99.90;;;;;;5092210;28;19992;-63
2023/04/24 08:22:35;;;;;;;;;;;17.60;99.90;;;;;;5086499;28;20560;-64
2023/04/24 08:25:01;;;;;;;;;;;17.70;99.90;;;;;;5103611;28;20086;-65
2023/04/24 08:27:27;;;;;;;;;;;17.90;99.90;;;;;;5096373;28;20119;-62
2023/04/24 08:29:53;;;;;;;;;;;17.90;99.90;;;;;;5098458;28;20403;-62
2023/04/24 08:32:19;;;;;;;;;;;18.10;99.90;;;;;;5090597;28;20227;-63
2023/04/24 08:34:45;;;;;;;;;;;18.30;99.90;;;;;;5097331;28;20076;-63
2023/04/24 08:37:10;;;;;;;;;;;18.40;99.90;;;;;;5101023;28;19995;-62
2023/04/24 08:39:36;;;;;;;;;;;18.30;99.90;;;;;;5078881;28;20020;-63
2023/04/24 08:42:05;;;;;;;;;;;18.30;99.90;;;;;;5073464;28;20430;-62
2023/04/24 08:44:32;;;;;;;;;;;18.30;99.90;;;;;;5069354;28;19989;-63
2023/04/24 08:46:57;;;;;;;;;;;18.60;99.90;;;;;;5070085;28;20150;-63
2023/04/24 08:49:24;;;;;;;;;;;18.70;99.90;;;;;;5074167;28;20499;-63
2023/04/24 08:51:50;;;;;;;;;;;18.90;99.90;;;;;;5072391;28;20032;-62
2023/04/24 08:54:16;;;;;;;;;;;19.20;99.90;;;;;;5069762;28;19993;-63
2023/04/24 08:56:43;;;;;;;;;;;19.50;99.30;;;;;;5068943;28;19997;-63
2023/04/24 08:59:10;;;;;;;;;;;19.70;99.00;;;;;;5069948;28;19997;-63
2023/04/24 09:01:37;;;;;;;;;;;19.80;97.30;;;;;;5068873;28;19989;-64
2023/04/24 09:04:03;;;;;;;;;;;19.90;94.10;;;;;;5070547;28;20344;-62
2023/04/24 09:06:30;;;;;;;;;;;19.80;91.00;;;;;;5071105;28;19989;-64
2023/04/24 09:08:56;;;;;;;;;;;19.90;92.50;;;;;;5071700;28;20104;-63
2023/04/24 09:11:24;;;;;;;;;;;20.00;89.60;;;;;;5089095;28;20076;-63
2023/04/24 09:13:49;;;;;;;;;;;20.00;82.40;;;;;;5090649;28;20030;-63
2023/04/24 09:16:15;;;;;;;;;;;20.20;78.60;;;;;;5090432;28;20567;-63
2023/04/24 09:18:40;;;;;;;;;;;20.30;79.10;;;;;;5087997;28;19993;-62
2023/04/24 09:21:07;;;;;;;;;;;20.40;75.30;;;;;;5084451;28;20084;-62
2023/04/24 09:23:33;;;;;;;;;;;20.50;70.70;;;;;;5071811;28;19996;-62
2023/04/24 09:26:00;;;;;;;;;;;20.60;69.10;;;;;;5073235;28;19994;-62
2023/04/24 09:28:37;;;;;;;;;;;20.80;70.00;;;;;;5081842;28;19989;-61
2023/04/24 09:31:03;;;;;;;;;;;20.80;67.70;;;;;;5091906;28;19985;-63
2023/04/24 09:33:29;;;;;;;;;;;20.80;66.60;;;;;;5090916;28;19992;-63
2023/04/24 09:35:55;;;;;;;;;;;20.90;66.00;;;;;;5084211;28;19997;-62
2023/04/24 09:38:30;;;;;;;;;;;21.10;66.10;;;;;;5082035;28;20495;-61
2023/04/24 09:40:58;;;;;;;;;;;21.10;61.90;;;;;;5087240;28;20010;-61
2023/04/24 09:43:26;;;;;;;;;;;21.10;62.40;;;;;;5093428;28;20103;-61
2023/04/24 09:45:55;;;;;;;;;;;21.30;60.50;;;;;;5092742;28;19985;-61
2023/04/24 09:48:29;;;;;;;;;;;21.40;60.40;;;;;;5091416;28;19988;-61
2023/04/24 09:50:55;;;;;;;;;;;21.40;60.30;;;;;;5092098;28;19985;-61
2023/04/24 09:53:24;;;;;;;;;;;21.50;62.60;;;;;;5092413;28;20084;-61
2023/04/24 09:55:50;;;;;;;;;;;21.50;58.30;;;;;;5092212;28;19985;-62
2023/04/24 09:58:15;;;;;;;;;;;21.40;56.80;;;;;;5095862;28;19989;-62
2023/04/24 10:00:41;;;;;;;;;;;21.20;57.80;;;;;;5093395;28;20415;-61
2023/04/24 10:03:07;;;;;;;;;;;21.20;58.40;;;;;;5093407;28;20012;-61
2023/04/24 10:05:36;;;;;;;;;;;21.30;56.90;;;;;;5093420;28;19996;-62
2023/04/24 10:08:03;;;;;;;;;;;21.40;56.50;;;;;;5093312;28;19985;-61
2023/04/24 10:10:34;;;;;;;;;;;21.40;57.60;;;;;;5093163;28;20016;-63
2023/04/24 10:13:00;;;;;;;;;;;21.40;57.00;;;;;;5093781;28;19993;-61
2023/04/24 10:15:26;;;;;;;;;;;21.50;55.10;;;;;;5093213;28;19997;-62
2023/04/24 10:17:52;;;;;;;;;;;21.70;57.00;;;;;;5093877;28;19985;-61
2023/04/24 10:20:30;;;;;;;;;;;21.90;57.80;;;;;;5092979;28;19989;-62
2023/04/24 10:22:57;;;;;;;;;;;22.10;58.80;;;;;;5076056;28;19989;-61
2023/04/24 10:25:24;;;;;;;;;;;22.30;55.10;;;;;;5092483;28;20071;-61
2023/04/24 10:27:51;;;;;;;;;;;22.50;54.00;;;;;;5093489;28;19985;-62
2023/04/24 10:30:17;;;;;;;;;;;22.60;54.70;;;;;;5088304;28;20068;-60
2023/04/24 10:32:43;;;;;;;;;;;22.90;57.20;;;;;;5079570;28;20005;-60
2023/04/24 10:35:14;;;;;;;;;;;23.00;56.00;;;;;;5082168;28;19989;-61
2023/04/24 10:37:45;;;;;;;;;;;23.20;52.90;;;;;;5088767;28;19997;-64
2023/04/24 10:40:11;;;;;;;;;;;23.40;51.00;;;;;;5079258;28;20485;-60
2023/04/24 10:42:42;;;;;;;;;;;23.60;52.20;;;;;;5074906;28;19985;-61
2023/04/24 10:45:16;;;;;;;;;;;23.80;53.50;;;;;;5086185;28;20125;-62
2023/04/24 10:47:42;;;;;;;;;;;24.00;50.50;;;;;;5093820;28;20048;-62
2023/04/24 10:50:10;;;;;;;;;;;24.10;50.30;;;;;;5087474;28;20110;-62
2023/04/24 10:52:51;;;;;;;;;;;24.20;54.40;;;;;;5077048;28;19993;-62
2023/04/24 10:55:16;;;;;;;;;;;24.30;51.20;;;;;;5092997;28;19997;-61
2023/04/24 10:58:03;;;;;;;;;;;24.20;48.60;;;;;;5075931;28;20152;-62
2023/04/24 11:00:29;;;;;;;;;;;24.40;51.00;;;;;;5074899;28;20432;-62
2023/04/24 11:02:55;;;;;;;;;;;24.30;47.60;;;;;;5083146;28;20003;-62
2023/04/24 11:05:21;;;;;;;;;;;24.20;48.40;;;;;;5095364;28;20571;-62
2023/04/24 11:08:05;;;;;;;;;;;23.70;48.70;;;;;;5092538;28;19989;-62
2023/04/24 11:10:31;;;;;;;;;;;23.60;48.20;;;;;;5092638;28;20005;-61
2023/04/24 11:12:56;;;;;;;;;;;23.70;49.40;;;;;;5098638;28;19995;-63
2023/04/24 11:15:22;;;;;;;;;;;23.70;46.50;;;;;;5098240;28;20914;-63
2023/04/24 11:17:47;;;;;;;;;;;23.60;47.20;;;;;;5105401;28;19984;-62
2023/04/24 11:20:16;;;;;;;;;;;23.80;49.70;;;;;;5101366;28;20000;-63
2023/04/24 11:22:42;;;;;;;;;;;24.00;47.10;;;;;;5102243;28;20090;-62
2023/04/24 11:25:08;;;;;;;;;;;24.10;47.70;;;;;;5091617;28;20108;-62
2023/04/24 11:27:44;;;;;;;;;;;24.00;47.60;;;;;;5092643;28;19989;-63
2023/04/24 11:30:10;;;;;;;;;;;24.10;49.70;;;;;;5092988;28;20386;-63
2023/04/24 11:32:40;;;;;;;;;;;24.20;48.20;;;;;;5075790;28;19990;-63
2023/04/24 11:35:06;;;;;;;;;;;24.30;46.80;;;;;;5072716;28;19994;-63
2023/04/24 11:37:36;;;;;;;;;;;24.60;47.80;;;;;;5073976;28;20295;-63
2023/04/24 11:40:02;;;;;;;;;;;24.80;47.10;;;;;;5088235;28;19995;-63
2023/04/24 11:42:27;;;;;;;;;;;25.00;44.10;;;;;;5090988;28;19984;-63
2023/04/24 11:44:55;;;;;;;;;;;24.90;45.70;;;;;;5091368;28;19993;-63
2023/04/24 11:47:39;;;;;;;;;;;24.90;44.50;;;;;;5090541;28;20040;-63
2023/04/24 11:50:06;;;;;;;;;;;24.60;42.10;;;;;;5090965;28;20383;-63
2023/04/24 11:52:31;;;;;;;;;;;24.30;42.40;;;;;;5077288;28;20517;-63
2023/04/24 11:54:57;;;;;;;;;;;24.20;42.40;;;;;;5094787;28;19989;-63
2023/04/24 11:57:26;;;;;;;;;;;24.20;42.50;;;;;;5093780;28;20029;-63
2023/04/24 11:59:52;;;;;;;;;;;24.30;43.20;;;;;;5091778;28;20439;-62
2023/04/24 12:02:21;;;;;;;;;;;24.30;42.90;;;;;;5083127;28;19993;-63
2023/04/24 12:04:47;;;;;;;;;;;24.40;42.40;;;;;;5084957;28;19996;-62
2023/04/24 12:07:12;;;;;;;;;;;24.40;42.90;;;;;;5079382;28;20371;-62
2023/04/24 12:09:45;;;;;;;;;;;24.20;43.80;;;;;;5074109;28;20009;-63
2023/04/24 12:12:15;;;;;;;;;;;24.20;42.90;;;;;;5080538;28;20349;-63
2023/04/24 12:14:44;;;;;;;;;;;24.20;42.80;;;;;;5103117;28;20332;-62
2023/04/24 12:17:10;;;;;;;;;;;24.30;42.10;;;;;;5111840;28;20077;-62
2023/04/24 12:19:35;;;;;;;;;;;24.00;42.60;;;;;;5111155;28;20083;-62
2023/04/24 12:22:02;;;;;;;;;;;24.00;42.70;;;;;;5112243;28;20491;-62
2023/04/24 12:24:28;;;;;;;;;;;24.10;41.80;;;;;;5112804;28;20027;-62
2023/04/24 12:26:54;;;;;;;;;;;24.20;42.70;;;;;;5112453;28;20030;-62
2023/04/24 12:29:20;;;;;;;;;;;24.20;41.60;;;;;;5113743;28;20008;-62
2023/04/24 12:31:46;;;;;;;;;;;24.20;42.30;;;;;;5113673;28;19985;-62
2023/04/24 12:34:22;;;;;;;;;;;24.10;41.60;;;;;;5114231;28;20335;-62
2023/04/24 12:36:48;;;;;;;;;;;24.10;42.00;;;;;;5113113;28;20063;-62
2023/04/24 12:39:20;;;;;;;;;;;24.30;42.30;;;;;;5112154;28;20616;-62
2023/04/24 12:41:50;;;;;;;;;;;24.80;43.00;;;;;;5112668;28;19985;-62
2023/04/24 12:44:15;;;;;;;;;;;25.20;42.20;;;;;;5114593;28;20082;-62
2023/04/24 12:46:41;;;;;;;;;;;25.10;42.00;;;;;;5114927;28;20475;-62
2023/04/24 12:49:06;;;;;;;;;;;25.10;41.80;;;;;;5114422;28;20008;-62
2023/04/24 12:51:32;;;;;;;;;;;25.20;41.30;;;;;;5114434;28;19985;-62
2023/04/24 12:53:57;;;;;;;;;;;25.20;42.20;;;;;;5114259;28;20125;-62
2023/04/24 12:56:24;;;;;;;;;;;25.30;40.80;;;;;;5113955;28;20042;-62
2023/04/24 12:58:51;;;;;;;;;;;25.00;40.60;;;;;;5114085;28;19985;-62
2023/04/24 13:01:16;;;;;;;;;;;24.90;41.60;;;;;;5112901;28;20301;-62
2023/04/24 13:03:43;;;;;;;;;;;24.30;41.90;;;;;;5114135;28;20443;-62
2023/04/24 13:06:08;;;;;;;;;;;24.00;42.70;;;;;;5114339;28;20447;-62
2023/04/24 13:08:34;;;;;;;;;;;24.20;41.60;;;;;;5113219;28;19996;-62
2023/04/24 13:10:59;;;;;;;;;;;24.60;42.10;;;;;;5113544;28;20460;-62
2023/04/24 13:13:25;;;;;;;;;;;24.70;41.00;;;;;;5114203;28;19996;-62
2023/04/24 13:15:51;;;;;;;;;;;24.80;42.30;;;;;;5114413;28;19989;-62
2023/04/24 13:18:16;;;;;;;;;;;25.00;41.00;;;;;;5113312;28;20351;-62
2023/04/24 13:20:42;;;;;;;;;;;25.20;41.30;;;;;;5113096;28;20358;-62
2023/04/24 13:23:07;;;;;;;;;;;25.10;40.80;;;;;;5112876;28;20327;-62
2023/04/24 13:25:35;;;;;;;;;;;25.00;40.60;;;;;;5112675;28;20013;-62
2023/04/24 13:28:00;;;;;;;;;;;25.00;40.70;;;;;;5113712;28;20090;-62
2023/04/24 13:30:26;;;;;;;;;;;25.10;41.40;;;;;;5113279;28;20092;-62
2023/04/24 13:32:51;;;;;;;;;;;25.10;40.80;;;;;;5113776;28;20024;-62
2023/04/24 13:35:17;;;;;;;;;;;25.10;39.70;;;;;;5114098;28;20057;-62
2023/04/24 13:37:42;;;;;;;;;;;25.20;40.80;;;;;;5113842;28;20025;-62
2023/04/24 13:40:08;;;;;;;;;;;25.20;41.90;;;;;;5114032;28;20346;-62
2023/04/24 13:42:34;;;;;;;;;;;25.30;41.50;;;;;;5113967;28;20446;-62
2023/04/24 13:44:59;;;;;;;;;;;25.70;41.40;;;;;;5114108;28;19994;-62
2023/04/24 13:47:25;;;;;;;;;;;25.60;40.00;;;;;;5113841;28;20461;-62
2023/04/24 13:49:51;;;;;;;;;;;25.50;41.20;;;;;;5114077;28;20019;-62
2023/04/24 13:52:16;;;;;;;;;;;25.40;40.90;;;;;;5113895;28;20404;-62
2023/04/24 13:54:42;;;;;;;;;;;24.90;40.90;;;;;;5110416;28;20494;-62
2023/04/24 13:57:08;;;;;;;;;;;24.60;42.40;;;;;;5073276;28;20351;-62
2023/04/24 13:59:33;;;;;;;;;;;24.20;42.30;;;;;;5073176;28;20355;-62
2023/04/24 14:01:59;;;;;;;;;;;23.90;42.50;;;;;;5076925;28;20103;-62
2023/04/24 14:04:25;;;;;;;;;;;23.70;42.70;;;;;;5077323;28;19996;-62
2023/04/24 14:06:50;;;;;;;;;;;23.60;42.60;;;;;;5075975;28;19992;-62
2023/04/24 14:09:16;;;;;;;;;;;23.70;44.60;;;;;;5076868;28;20016;-62
2023/04/24 14:11:42;;;;;;;;;;;23.80;42.80;;;;;;5076774;28;20363;-62
2023/04/24 14:14:08;;;;;;;;;;;24.00;43.30;;;;;;5077136;28;20021;-62